Time;durP1;ratioP1;P1;durP2;ratioP2;P2;SDS_P1;SDS_P2;PMS_P1;PMS_P2;Temp;Humidity;BMP_temperature;BMP_pressure;BME280_temperature;BME280_humidity;BME280_pressure;Samples;Min_cycle;Max_cycle;Signal;HPM_P1;HPM_P2
2023/07/06 00:02:03;;;;;;;;;;;13.00;99.90;;;;;;5093122;28;19969;-64
2023/07/06 00:04:30;;;;;;;;;;;13.00;99.90;;;;;;5093194;28;19923;-67
2023/07/06 00:06:57;;;;;;;;;;;13.10;99.90;;;;;;5093085;28;19947;-67
2023/07/06 00:09:23;;;;;;;;;;;13.20;99.90;;;;;;5092995;28;20272;-64
2023/07/06 00:11:50;;;;;;;;;;;13.20;99.90;;;;;;5093098;28;19930;-65
2023/07/06 00:14:17;;;;;;;;;;;13.30;99.90;;;;;;5074914;28;19951;-67
2023/07/06 00:16:47;;;;;;;;;;;13.40;99.90;;;;;;5074859;28;19915;-67
2023/07/06 00:19:18;;;;;;;;;;;13.50;99.90;;;;;;5092884;28;19908;-67
2023/07/06 00:21:45;;;;;;;;;;;13.60;99.90;;;;;;5092543;28;20365;-67
2023/07/06 00:24:15;;;;;;;;;;;13.70;99.90;;;;;;5093059;28;19924;-68
2023/07/06 00:26:42;;;;;;;;;;;13.70;99.90;;;;;;5092801;28;19908;-66
2023/07/06 00:29:09;;;;;;;;;;;13.80;99.90;;;;;;5092880;28;19995;-67
2023/07/06 00:31:50;;;;;;;;;;;13.80;99.90;;;;;;5092785;28;19908;-66
2023/07/06 00:34:18;;;;;;;;;;;13.90;99.90;;;;;;5092772;28;19974;-65
2023/07/06 00:36:46;;;;;;;;;;;14.00;99.90;;;;;;5092888;28;19909;-67
2023/07/06 00:39:13;;;;;;;;;;;14.00;99.90;;;;;;5092757;28;19908;-66
2023/07/06 00:41:40;;;;;;;;;;;14.10;99.90;;;;;;5092670;28;19912;-68
2023/07/06 00:44:26;;;;;;;;;;;14.10;99.90;;;;;;5092704;28;19915;-68
2023/07/06 00:46:53;;;;;;;;;;;14.20;99.20;;;;;;5092764;28;19975;-66
2023/07/06 00:49:19;;;;;;;;;;;14.20;99.60;;;;;;5092723;28;20383;-64
2023/07/06 00:51:47;;;;;;;;;;;14.40;99.40;;;;;;5092803;28;19915;-68
2023/07/06 00:54:16;;;;;;;;;;;14.40;98.90;;;;;;5092447;28;19936;-66
2023/07/06 00:56:44;;;;;;;;;;;14.40;98.60;;;;;;5092618;28;19962;-68
2023/07/06 00:59:14;;;;;;;;;;;14.50;98.70;;;;;;5092592;28;19908;-67
2023/07/06 01:01:41;;;;;;;;;;;14.60;98.00;;;;;;5092684;28;19959;-68
2023/07/06 01:04:11;;;;;;;;;;;14.60;98.20;;;;;;5092676;28;20023;-69
2023/07/06 01:06:50;;;;;;;;;;;14.60;98.40;;;;;;5092614;28;19912;-67
2023/07/06 01:09:20;;;;;;;;;;;14.80;98.00;;;;;;5092620;28;19969;-67
2023/07/06 01:11:47;;;;;;;;;;;14.90;98.10;;;;;;5092559;28;19908;-65
2023/07/06 01:14:14;;;;;;;;;;;14.90;97.70;;;;;;5092514;28;19908;-65
2023/07/06 01:16:46;;;;;;;;;;;14.90;97.60;;;;;;5092671;28;19973;-66
2023/07/06 01:19:35;;;;;;;;;;;15.00;97.60;;;;;;5092637;28;19908;-67
2023/07/06 01:22:13;;;;;;;;;;;15.00;97.60;;;;;;5094384;28;20014;-67
2023/07/06 01:25:05;;;;;;;;;;;15.20;97.80;;;;;;5096078;28;20329;-64
2023/07/06 01:27:36;;;;;;;;;;;15.20;97.90;;;;;;5095730;28;19909;-66
2023/07/06 01:30:09;;;;;;;;;;;15.30;97.30;;;;;;5095790;28;20019;-68
2023/07/06 01:32:47;;;;;;;;;;;15.40;97.60;;;;;;5095778;28;19908;-68
2023/07/06 01:35:34;;;;;;;;;;;15.40;97.20;;;;;;5095658;28;19953;-69
2023/07/06 01:38:01;;;;;;;;;;;15.60;97.50;;;;;;5095515;28;19912;-68
2023/07/06 01:40:28;;;;;;;;;;;15.60;97.00;;;;;;5095816;28;19915;-68
2023/07/06 01:42:55;;;;;;;;;;;15.70;97.40;;;;;;5095469;28;19916;-68
2023/07/06 01:45:23;;;;;;;;;;;15.80;97.00;;;;;;5095641;28;19920;-69
2023/07/06 01:47:55;;;;;;;;;;;15.70;96.40;;;;;;5095711;28;19908;-67
2023/07/06 01:50:28;;;;;;;;;;;15.90;97.20;;;;;;5095426;28;20007;-67
2023/07/06 01:52:55;;;;;;;;;;;16.00;96.80;;;;;;5095695;28;20310;-64
2023/07/06 01:55:35;;;;;;;;;;;16.10;96.50;;;;;;5095491;28;20003;-64
2023/07/06 01:58:05;;;;;;;;;;;16.30;96.30;;;;;;5095529;28;20391;-67
2023/07/06 02:00:35;;;;;;;;;;;16.40;95.30;;;;;;5095517;28;19908;-63
2023/07/06 02:03:05;;;;;;;;;;;16.40;94.60;;;;;;5095159;28;19916;-66
2023/07/06 02:05:32;;;;;;;;;;;16.50;95.60;;;;;;5095318;28;20056;-67
2023/07/06 02:07:59;;;;;;;;;;;16.50;94.80;;;;;;5095289;28;19915;-64
2023/07/06 02:10:26;;;;;;;;;;;16.50;94.90;;;;;;5094917;28;19957;-67
2023/07/06 02:12:52;;;;;;;;;;;16.50;94.50;;;;;;5095220;28;19908;-69
2023/07/06 02:15:19;;;;;;;;;;;16.50;93.90;;;;;;5095121;28;20392;-68
2023/07/06 02:17:46;;;;;;;;;;;16.40;94.30;;;;;;5095051;28;19911;-66
2023/07/06 02:20:16;;;;;;;;;;;16.40;94.40;;;;;;5095242;28;19915;-68
2023/07/06 02:22:43;;;;;;;;;;;16.40;94.00;;;;;;5094849;28;20011;-67
2023/07/06 02:25:09;;;;;;;;;;;16.40;94.40;;;;;;5076984;28;19943;-65
2023/07/06 02:27:36;;;;;;;;;;;16.40;93.90;;;;;;5095054;28;19908;-67
2023/07/06 02:30:04;;;;;;;;;;;16.40;94.20;;;;;;5095059;28;19915;-68
2023/07/06 02:32:32;;;;;;;;;;;16.50;94.70;;;;;;5093741;28;20066;-66
2023/07/06 02:34:58;;;;;;;;;;;16.60;94.10;;;;;;5094427;28;19912;-67
2023/07/06 02:37:25;;;;;;;;;;;16.80;93.70;;;;;;5094900;28;20009;-67
2023/07/06 02:39:52;;;;;;;;;;;17.20;93.70;;;;;;5094702;28;19947;-63
2023/07/06 02:42:19;;;;;;;;;;;17.30;93.20;;;;;;5094761;28;19920;-64
2023/07/06 02:44:45;;;;;;;;;;;17.30;93.10;;;;;;5094533;28;19942;-65
2023/07/06 02:47:12;;;;;;;;;;;17.50;93.20;;;;;;5095004;28;20379;-66
2023/07/06 02:49:39;;;;;;;;;;;17.50;92.90;;;;;;5094611;28;19972;-67
2023/07/06 02:52:06;;;;;;;;;;;17.50;92.90;;;;;;5094621;28;19943;-68
2023/07/06 02:54:33;;;;;;;;;;;17.60;92.50;;;;;;5094446;28;19999;-65
2023/07/06 02:57:02;;;;;;;;;;;17.80;92.10;;;;;;5094810;28;19915;-68
2023/07/06 02:59:33;;;;;;;;;;;17.90;92.40;;;;;;5076746;28;19910;-67
2023/07/06 03:01:59;;;;;;;;;;;18.70;91.30;;;;;;5094227;28;19923;-66
2023/07/06 03:04:27;;;;;;;;;;;19.30;90.60;;;;;;5094251;28;20006;-67
2023/07/06 03:06:55;;;;;;;;;;;19.70;89.90;;;;;;5094066;28;20375;-68
2023/07/06 03:09:23;;;;;;;;;;;20.10;88.20;;;;;;5094256;28;19915;-69
2023/07/06 03:11:52;;;;;;;;;;;20.20;87.60;;;;;;5095116;28;19916;-67
2023/07/06 03:14:24;;;;;;;;;;;20.00;87.30;;;;;;5095517;28;19915;-65
2023/07/06 03:16:53;;;;;;;;;;;20.00;88.30;;;;;;5095064;28;20288;-66
2023/07/06 03:19:21;;;;;;;;;;;19.70;86.90;;;;;;5095979;28;20002;-68
2023/07/06 03:21:48;;;;;;;;;;;19.70;88.20;;;;;;5095119;28;19962;-69
2023/07/06 03:24:15;;;;;;;;;;;19.90;85.90;;;;;;5095015;28;19955;-68
2023/07/06 03:26:42;;;;;;;;;;;20.10;85.60;;;;;;5095173;28;20361;-66
2023/07/06 03:29:09;;;;;;;;;;;20.20;85.10;;;;;;5094600;28;19908;-68
2023/07/06 03:31:36;;;;;;;;;;;20.70;83.60;;;;;;5095179;28;20252;-69
2023/07/06 03:34:06;;;;;;;;;;;20.80;83.00;;;;;;5095263;28;20369;-67
2023/07/06 03:36:33;;;;;;;;;;;20.80;83.80;;;;;;5094816;28;19916;-64
2023/07/06 03:39:00;;;;;;;;;;;21.20;83.40;;;;;;5076918;28;19998;-65
2023/07/06 03:41:27;;;;;;;;;;;22.10;80.40;;;;;;5095267;28;19916;-66
2023/07/06 03:43:58;;;;;;;;;;;23.40;79.00;;;;;;5093702;28;20007;-67
2023/07/06 03:46:25;;;;;;;;;;;25.00;75.30;;;;;;5094161;28;19923;-68
2023/07/06 03:48:52;;;;;;;;;;;26.30;71.80;;;;;;5094509;28;19908;-69
2023/07/06 03:51:19;;;;;;;;;;;27.00;69.50;;;;;;5093850;28;19912;-71
2023/07/06 03:53:46;;;;;;;;;;;27.70;66.60;;;;;;5093833;28;20383;-65
2023/07/06 03:56:15;;;;;;;;;;;27.60;66.00;;;;;;5093733;28;19912;-69
2023/07/06 03:58:42;;;;;;;;;;;28.10;64.80;;;;;;5093586;28;19908;-66
2023/07/06 04:01:09;;;;;;;;;;;27.80;64.60;;;;;;5093332;28;20295;-64
2023/07/06 04:03:35;;;;;;;;;;;27.80;63.70;;;;;;5093666;28;19912;-68
2023/07/06 04:06:03;;;;;;;;;;;27.20;64.60;;;;;;5093030;28;19990;-68
2023/07/06 04:08:30;;;;;;;;;;;26.80;63.70;;;;;;5093096;28;19995;-67
2023/07/06 04:10:57;;;;;;;;;;;26.60;64.00;;;;;;5093112;28;19943;-69
2023/07/06 04:13:24;;;;;;;;;;;26.10;65.10;;;;;;5093287;28;19908;-65
2023/07/06 04:15:52;;;;;;;;;;;25.50;64.70;;;;;;5093238;28;19961;-65
2023/07/06 04:18:18;;;;;;;;;;;25.00;66.30;;;;;;5093322;28;19911;-66
2023/07/06 04:20:47;;;;;;;;;;;23.80;68.20;;;;;;5093059;28;19912;-65
2023/07/06 04:23:15;;;;;;;;;;;22.80;69.70;;;;;;5092437;28;19947;-65
2023/07/06 04:25:41;;;;;;;;;;;22.10;72.30;;;;;;5092738;28;19961;-66
2023/07/06 04:28:10;;;;;;;;;;;21.30;73.60;;;;;;5092784;28;19969;-66
2023/07/06 04:30:38;;;;;;;;;;;20.80;74.90;;;;;;5092685;28;20366;-68
2023/07/06 04:33:06;;;;;;;;;;;20.00;75.50;;;;;;5092738;28;19915;-68
2023/07/06 04:35:33;;;;;;;;;;;19.50;77.00;;;;;;5092845;28;19908;-64
2023/07/06 04:38:00;;;;;;;;;;;19.00;78.00;;;;;;5092631;28;20287;-66
2023/07/06 04:40:26;;;;;;;;;;;18.70;79.40;;;;;;5092743;28;20279;-64
2023/07/06 04:42:54;;;;;;;;;;;18.50;80.40;;;;;;5092921;28;19916;-66
2023/07/06 04:45:22;;;;;;;;;;;18.40;81.70;;;;;;5092629;28;19963;-69
2023/07/06 04:47:49;;;;;;;;;;;18.20;80.90;;;;;;5092801;28;19913;-68
2023/07/06 04:50:17;;;;;;;;;;;18.10;81.60;;;;;;5092890;28;19931;-69
2023/07/06 04:52:47;;;;;;;;;;;17.90;82.50;;;;;;5092639;28;19915;-65
2023/07/06 04:55:18;;;;;;;;;;;17.70;82.60;;;;;;5093203;28;20276;-64
2023/07/06 04:57:46;;;;;;;;;;;17.50;82.70;;;;;;5077736;28;19915;-63
2023/07/06 05:00:24;;;;;;;;;;;17.50;84.10;;;;;;5096552;28;19961;-67
2023/07/06 05:02:52;;;;;;;;;;;17.40;83.90;;;;;;5096206;28;19923;-66
2023/07/06 05:05:19;;;;;;;;;;;17.50;83.10;;;;;;5096440;28;19916;-66
2023/07/06 05:07:48;;;;;;;;;;;17.50;83.90;;;;;;5096475;28;19962;-67
2023/07/06 05:10:15;;;;;;;;;;;17.50;83.50;;;;;;5096376;28;19908;-64
2023/07/06 05:12:42;;;;;;;;;;;17.30;83.00;;;;;;5096472;28;20334;-66
2023/07/06 05:15:09;;;;;;;;;;;17.30;83.40;;;;;;5096290;28;19919;-68
2023/07/06 05:17:38;;;;;;;;;;;17.30;83.90;;;;;;5096513;28;19953;-67
2023/07/06 05:20:08;;;;;;;;;;;17.20;83.90;;;;;;5096073;28;19960;-67
2023/07/06 05:22:39;;;;;;;;;;;17.20;83.50;;;;;;5078127;28;20257;-68
2023/07/06 05:25:07;;;;;;;;;;;17.10;81.70;;;;;;5096287;28;19966;-68
2023/07/06 05:27:34;;;;;;;;;;;17.10;81.60;;;;;;5096092;28;20349;-68
2023/07/06 05:30:01;;;;;;;;;;;17.20;82.00;;;;;;5096055;28;19908;-69
2023/07/06 05:32:28;;;;;;;;;;;17.10;81.70;;;;;;5096493;28;20323;-68
2023/07/06 05:34:54;;;;;;;;;;;17.10;81.80;;;;;;5096133;28;20732;-68
2023/07/06 05:37:21;;;;;;;;;;;17.00;82.10;;;;;;5095862;28;19966;-68
2023/07/06 05:39:47;;;;;;;;;;;16.80;82.40;;;;;;5095885;28;19951;-67
2023/07/06 05:42:14;;;;;;;;;;;16.80;82.80;;;;;;5095904;28;20086;-66
2023/07/06 05:44:41;;;;;;;;;;;16.70;82.00;;;;;;5095643;28;19916;-69
2023/07/06 05:47:07;;;;;;;;;;;16.60;81.10;;;;;;5095723;28;20402;-67
2023/07/06 05:49:34;;;;;;;;;;;16.60;81.40;;;;;;5095793;28;19913;-69
2023/07/06 05:52:01;;;;;;;;;;;16.50;81.20;;;;;;5095838;28;19908;-68
2023/07/06 05:54:27;;;;;;;;;;;16.50;81.50;;;;;;5095755;28;19908;-68
2023/07/06 05:56:55;;;;;;;;;;;16.40;81.50;;;;;;5095538;28;19908;-67
2023/07/06 05:59:24;;;;;;;;;;;16.40;81.50;;;;;;5095122;28;19936;-69
2023/07/06 06:01:51;;;;;;;;;;;16.30;81.80;;;;;;5095287;28;20383;-68
2023/07/06 06:04:18;;;;;;;;;;;16.30;82.10;;;;;;5095401;28;19908;-68
2023/07/06 06:06:52;;;;;;;;;;;16.30;81.70;;;;;;5095132;28;19968;-68
2023/07/06 06:09:18;;;;;;;;;;;16.40;82.60;;;;;;5095041;28;19918;-68
2023/07/06 06:11:45;;;;;;;;;;;16.40;82.10;;;;;;5095271;28;19908;-70
2023/07/06 06:14:12;;;;;;;;;;;16.40;82.60;;;;;;5095320;28;19908;-70
2023/07/06 06:16:39;;;;;;;;;;;16.30;82.40;;;;;;5095279;28;19912;-70
2023/07/06 06:19:06;;;;;;;;;;;16.40;82.20;;;;;;5095104;28;19912;-68
2023/07/06 06:21:33;;;;;;;;;;;16.30;82.20;;;;;;5095204;28;19912;-67
2023/07/06 06:24:01;;;;;;;;;;;16.30;81.30;;;;;;5095822;28;19908;-69
2023/07/06 06:26:27;;;;;;;;;;;16.30;81.50;;;;;;5094894;28;19930;-70
2023/07/06 06:28:55;;;;;;;;;;;16.20;80.90;;;;;;5094963;28;19989;-69
2023/07/06 06:31:21;;;;;;;;;;;16.30;81.40;;;;;;5094787;28;19908;-69
2023/07/06 06:33:48;;;;;;;;;;;16.30;81.80;;;;;;5094911;28;19916;-68
2023/07/06 06:36:16;;;;;;;;;;;16.30;80.70;;;;;;5094917;28;19912;-64
2023/07/06 06:38:43;;;;;;;;;;;16.30;80.30;;;;;;5094617;28;19991;-66
2023/07/06 06:41:13;;;;;;;;;;;16.30;79.90;;;;;;5094635;28;19920;-66
2023/07/06 06:43:44;;;;;;;;;;;16.30;80.20;;;;;;5094785;28;19912;-66
2023/07/06 06:46:11;;;;;;;;;;;16.30;80.50;;;;;;5094284;28;19920;-65
2023/07/06 06:48:41;;;;;;;;;;;16.20;79.60;;;;;;5095206;28;20320;-68
2023/07/06 06:51:10;;;;;;;;;;;16.20;80.30;;;;;;5094350;28;19915;-65
2023/07/06 06:53:40;;;;;;;;;;;16.20;80.00;;;;;;5094574;28;19908;-65
2023/07/06 06:56:07;;;;;;;;;;;16.10;80.40;;;;;;5094542;28;19954;-64
2023/07/06 06:58:35;;;;;;;;;;;16.10;80.30;;;;;;5094453;28;19908;-65
2023/07/06 07:01:02;;;;;;;;;;;15.90;80.20;;;;;;5094287;28;19908;-66
2023/07/06 07:03:29;;;;;;;;;;;15.80;80.40;;;;;;5094211;28;19919;-67
2023/07/06 07:06:11;;;;;;;;;;;15.70;80.40;;;;;;5094320;28;19994;-65
2023/07/06 07:08:44;;;;;;;;;;;15.60;80.70;;;;;;5094076;28;19999;-67
2023/07/06 07:11:12;;;;;;;;;;;15.60;81.10;;;;;;5094580;28;19915;-64
2023/07/06 07:13:40;;;;;;;;;;;15.40;81.40;;;;;;5094020;28;19919;-65
2023/07/06 07:16:11;;;;;;;;;;;15.40;81.70;;;;;;5094070;28;19909;-64
2023/07/06 07:18:38;;;;;;;;;;;15.30;81.80;;;;;;5093520;28;19908;-66
2023/07/06 07:21:06;;;;;;;;;;;15.20;82.30;;;;;;5093781;28;19990;-64
2023/07/06 07:23:43;;;;;;;;;;;15.10;82.90;;;;;;5093888;28;19912;-64
2023/07/06 07:26:10;;;;;;;;;;;15.00;83.10;;;;;;5093870;28;19908;-63
2023/07/06 07:28:37;;;;;;;;;;;14.90;83.60;;;;;;5094047;28;19915;-64
2023/07/06 07:31:05;;;;;;;;;;;14.90;83.90;;;;;;5093978;28;19916;-65
2023/07/06 07:33:31;;;;;;;;;;;14.80;83.90;;;;;;5093687;28;19961;-64
2023/07/06 07:36:01;;;;;;;;;;;14.70;84.80;;;;;;5093638;28;20430;-64
2023/07/06 07:38:27;;;;;;;;;;;14.60;85.30;;;;;;5093613;28;19908;-69
2023/07/06 07:40:56;;;;;;;;;;;14.50;86.20;;;;;;5093364;28;19931;-65
2023/07/06 07:43:27;;;;;;;;;;;14.40;86.10;;;;;;5093511;28;19915;-66
2023/07/06 07:46:00;;;;;;;;;;;14.40;86.40;;;;;;5092834;28;19967;-64
2023/07/06 07:48:27;;;;;;;;;;;14.30;86.60;;;;;;5092904;28;19953;-64
2023/07/06 07:50:56;;;;;;;;;;;14.30;86.70;;;;;;5092790;28;19998;-69
2023/07/06 07:53:27;;;;;;;;;;;14.20;86.90;;;;;;5092699;28;20002;-64
2023/07/06 07:55:56;;;;;;;;;;;14.20;87.10;;;;;;5092584;28;20002;-64
2023/07/06 07:58:23;;;;;;;;;;;14.20;87.60;;;;;;5074423;28;19912;-64
2023/07/06 08:00:51;;;;;;;;;;;14.10;87.50;;;;;;5092329;28;19977;-68
2023/07/06 08:03:18;;;;;;;;;;;14.10;88.30;;;;;;5074225;28;19923;-65
2023/07/06 08:05:44;;;;;;;;;;;14.00;88.10;;;;;;5092683;28;20273;-66
2023/07/06 08:08:11;;;;;;;;;;;13.90;88.40;;;;;;5092033;28;19990;-68
2023/07/06 08:10:39;;;;;;;;;;;14.00;88.80;;;;;;5092330;28;20341;-68
2023/07/06 08:13:09;;;;;;;;;;;13.90;90.00;;;;;;5092590;28;19912;-66
2023/07/06 08:15:39;;;;;;;;;;;13.80;89.90;;;;;;5092234;28;19930;-64
2023/07/06 08:18:06;;;;;;;;;;;13.70;90.30;;;;;;5092469;28;19916;-65
2023/07/06 08:20:36;;;;;;;;;;;13.70;90.60;;;;;;5092153;28;20002;-64
2023/07/06 08:23:04;;;;;;;;;;;13.70;90.40;;;;;;5092043;28;19927;-66
2023/07/06 08:25:40;;;;;;;;;;;13.70;90.40;;;;;;5092220;28;20194;-64
2023/07/06 08:28:08;;;;;;;;;;;13.60;90.20;;;;;;5092273;28;19912;-65
2023/07/06 08:30:36;;;;;;;;;;;13.60;90.10;;;;;;5090834;28;20283;-68
2023/07/06 08:33:04;;;;;;;;;;;13.60;90.30;;;;;;5073251;28;19920;-68
2023/07/06 08:35:31;;;;;;;;;;;13.50;90.40;;;;;;5073586;28;19968;-67
2023/07/06 08:37:59;;;;;;;;;;;13.60;90.40;;;;;;5092019;28;19905;-66
2023/07/06 08:40:28;;;;;;;;;;;13.60;90.80;;;;;;5091991;28;19931;-69
2023/07/06 08:42:56;;;;;;;;;;;13.60;91.10;;;;;;5091781;28;19939;-67
2023/07/06 08:45:24;;;;;;;;;;;13.60;91.10;;;;;;4967918;28;3512069;-65
2023/07/06 08:47:51;;;;;;;;;;;13.40;91.20;;;;;;5092754;28;19912;-66
2023/07/06 08:50:22;;;;;;;;;;;13.50;91.30;;;;;;5092656;28;19971;-66
2023/07/06 08:52:49;;;;;;;;;;;13.50;91.20;;;;;;5092622;28;19908;-66
2023/07/06 08:55:17;;;;;;;;;;;13.60;91.10;;;;;;5092762;28;19908;-67
2023/07/06 08:57:49;;;;;;;;;;;13.50;91.40;;;;;;5092745;28;19953;-68
2023/07/06 09:00:21;;;;;;;;;;;13.50;91.10;;;;;;5074422;28;19908;-69
2023/07/06 09:02:50;;;;;;;;;;;13.50;91.50;;;;;;5092195;28;20288;-68
2023/07/06 09:05:20;;;;;;;;;;;13.50;91.60;;;;;;5092505;28;19980;-68
2023/07/06 09:07:47;;;;;;;;;;;13.40;91.70;;;;;;5091551;28;20357;-67
2023/07/06 09:10:20;;;;;;;;;;;13.40;91.90;;;;;;5092436;28;20356;-68
2023/07/06 09:12:48;;;;;;;;;;;13.40;92.10;;;;;;5092333;28;19915;-67
2023/07/06 09:15:16;;;;;;;;;;;13.30;92.70;;;;;;5092284;28;20002;-68
2023/07/06 09:17:47;;;;;;;;;;;13.20;93.00;;;;;;5092626;28;19951;-67
2023/07/06 09:20:14;;;;;;;;;;;13.20;94.10;;;;;;5092416;28;19909;-67
2023/07/06 09:22:41;;;;;;;;;;;13.10;94.60;;;;;;5092410;28;19924;-68
2023/07/06 09:25:18;;;;;;;;;;;13.10;94.70;;;;;;5092284;28;19990;-65
2023/07/06 09:27:49;;;;;;;;;;;13.00;94.20;;;;;;5092554;28;19985;-68
2023/07/06 09:30:42;;;;;;;;;;;13.00;94.50;;;;;;5092551;28;20357;-63
2023/07/06 09:33:20;;;;;;;;;;;13.00;94.80;;;;;;5089553;28;19996;-66
2023/07/06 09:35:52;;;;;;;;;;;12.80;95.00;;;;;;5092064;28;19942;-66
2023/07/06 09:38:19;;;;;;;;;;;12.80;95.70;;;;;;5092080;28;20323;-66
2023/07/06 09:40:46;;;;;;;;;;;12.80;96.00;;;;;;5092485;28;19934;-66
2023/07/06 09:43:21;;;;;;;;;;;12.70;96.30;;;;;;5094508;28;20008;-66
2023/07/06 09:45:49;;;;;;;;;;;12.60;96.50;;;;;;5095847;28;19920;-66
2023/07/06 09:48:39;;;;;;;;;;;12.60;96.90;;;;;;5095629;28;19912;-68
2023/07/06 09:51:13;;;;;;;;;;;12.40;97.30;;;;;;5095812;28;20390;-68
2023/07/06 09:53:59;;;;;;;;;;;12.30;98.10;;;;;;5095815;28;20296;-69
2023/07/06 09:56:29;;;;;;;;;;;12.30;98.80;;;;;;5095595;28;20357;-65
2023/07/06 09:58:57;;;;;;;;;;;12.20;99.10;;;;;;5095432;28;19953;-64
2023/07/06 10:01:31;;;;;;;;;;;12.20;99.70;;;;;;5077212;28;19912;-67
2023/07/06 10:04:11;;;;;;;;;;;12.20;99.90;;;;;;5095413;28;20398;-68
2023/07/06 10:06:56;;;;;;;;;;;12.10;99.90;;;;;;5095459;28;19907;-70
2023/07/06 10:09:28;;;;;;;;;;;12.10;99.90;;;;;;5095341;28;19908;-67
2023/07/06 10:12:05;;;;;;;;;;;12.10;99.90;;;;;;5095385;28;19908;-69
2023/07/06 10:14:41;;;;;;;;;;;12.00;99.90;;;;;;5095222;28;20273;-68
2023/07/06 10:17:30;;;;;;;;;;;12.00;99.90;;;;;;5095395;28;20002;-66
2023/07/06 10:20:00;;;;;;;;;;;12.00;99.90;;;;;;5076960;28;19954;-65
2023/07/06 10:22:40;;;;;;;;;;;12.00;99.90;;;;;;5076800;28;19949;-67
2023/07/06 10:25:25;;;;;;;;;;;12.00;99.90;;;;;;5094878;28;19908;-66
2023/07/06 10:28:04;;;;;;;;;;;12.00;99.90;;;;;;5094996;28;19952;-69
2023/07/06 10:30:36;;;;;;;;;;;12.10;99.80;;;;;;5095022;28;20271;-68
2023/07/06 10:33:07;;;;;;;;;;;12.20;99.70;;;;;;5076781;28;19915;-67
2023/07/06 10:35:40;;;;;;;;;;;12.10;99.80;;;;;;5094868;28;19909;-64
2023/07/06 10:38:10;;;;;;;;;;;12.20;99.90;;;;;;5094864;28;19908;-69
2023/07/06 10:40:37;;;;;;;;;;;12.10;99.90;;;;;;5094768;28;20366;-69
2023/07/06 10:43:27;;;;;;;;;;;12.20;99.90;;;;;;5094814;28;19923;-69
2023/07/06 10:45:56;;;;;;;;;;;12.20;99.90;;;;;;5094240;28;20258;-67
2023/07/06 10:48:25;;;;;;;;;;;12.20;99.90;;;;;;5094533;28;19953;-65
2023/07/06 10:51:05;;;;;;;;;;;12.20;99.90;;;;;;5094918;28;19908;-67
2023/07/06 10:53:35;;;;;;;;;;;12.20;99.90;;;;;;5093941;28;19915;-67
2023/07/06 10:56:02;;;;;;;;;;;12.20;99.90;;;;;;5094232;28;19908;-64
2023/07/06 10:58:30;;;;;;;;;;;12.20;99.90;;;;;;5094565;28;19908;-64
2023/07/06 11:00:58;;;;;;;;;;;12.30;99.90;;;;;;5094480;28;20291;-64
2023/07/06 11:03:31;;;;;;;;;;;12.20;99.90;;;;;;5094182;28;20335;-65
2023/07/06 11:06:05;;;;;;;;;;;12.20;99.90;;;;;;5094337;28;19909;-66
2023/07/06 11:08:51;;;;;;;;;;;12.10;99.90;;;;;;5094276;28;19908;-65
2023/07/06 11:11:19;;;;;;;;;;;12.10;99.90;;;;;;5094258;28;19914;-64
2023/07/06 11:13:53;;;;;;;;;;;12.10;99.90;;;;;;5094220;28;20288;-65
2023/07/06 11:16:42;;;;;;;;;;;12.00;99.90;;;;;;5094142;28;19912;-67
2023/07/06 11:19:13;;;;;;;;;;;12.00;99.90;;;;;;5085800;28;19908;-67
2023/07/06 11:21:46;;;;;;;;;;;11.90;99.90;;;;;;5093897;28;19912;-66
2023/07/06 11:24:16;;;;;;;;;;;11.90;99.90;;;;;;5094032;28;19908;-67
2023/07/06 11:27:01;;;;;;;;;;;11.90;99.90;;;;;;5094002;28;19996;-68
2023/07/06 11:29:29;;;;;;;;;;;11.80;99.90;;;;;;5093785;28;20003;-66
2023/07/06 11:32:09;;;;;;;;;;;11.70;99.90;;;;;;5093918;28;19915;-65
2023/07/06 11:34:42;;;;;;;;;;;11.70;99.90;;;;;;5093746;28;19914;-67
2023/07/06 11:37:14;;;;;;;;;;;11.70;99.90;;;;;;5093858;28;19912;-67
2023/07/06 11:40:06;;;;;;;;;;;11.70;99.90;;;;;;5093550;28;19908;-64
2023/07/06 11:42:45;;;;;;;;;;;11.70;99.90;;;;;;5065831;28;19916;-69
2023/07/06 11:45:27;;;;;;;;;;;11.60;99.90;;;;;;5093459;28;20285;-68
2023/07/06 11:48:02;;;;;;;;;;;11.60;99.90;;;;;;5093506;28;19915;-67
2023/07/06 11:50:33;;;;;;;;;;;11.70;99.90;;;;;;5093325;28;20339;-64
2023/07/06 11:53:09;;;;;;;;;;;11.60;99.90;;;;;;5093201;28;19908;-65
2023/07/06 11:55:54;;;;;;;;;;;11.60;99.90;;;;;;5092996;28;19943;-64
2023/07/06 12:01:33;;;;;;;;;;;11.50;99.90;;;;;;5020404;28;19973;-67
2023/07/06 12:04:02;;;;;;;;;;;11.50;99.90;;;;;;5092607;28;20280;-64
2023/07/06 12:06:32;;;;;;;;;;;11.60;99.90;;;;;;5074567;28;19908;-65
2023/07/06 12:09:02;;;;;;;;;;;11.60;99.90;;;;;;5092815;28;19912;-62
2023/07/06 12:11:29;;;;;;;;;;;11.60;99.90;;;;;;5093127;28;19972;-64
2023/07/06 12:13:56;;;;;;;;;;;11.70;99.90;;;;;;5092982;28;19948;-63
2023/07/06 12:16:24;;;;;;;;;;;11.60;99.90;;;;;;5092956;28;19983;-62
2023/07/06 12:19:06;;;;;;;;;;;11.60;99.90;;;;;;5092984;28;19909;-63
2023/07/06 12:21:39;;;;;;;;;;;11.60;99.90;;;;;;5092856;28;19944;-63
2023/07/06 12:24:07;;;;;;;;;;;11.60;99.90;;;;;;5092039;28;20321;-64
2023/07/06 12:26:41;;;;;;;;;;;11.60;99.90;;;;;;5092747;28;19962;-63
2023/07/06 12:29:07;;;;;;;;;;;11.60;99.90;;;;;;5092797;28;19963;-65
2023/07/06 12:31:34;;;;;;;;;;;11.70;99.90;;;;;;5092864;28;19940;-64
2023/07/06 12:34:01;;;;;;;;;;;11.60;99.90;;;;;;5092860;28;19954;-64
2023/07/06 12:36:28;;;;;;;;;;;11.60;99.90;;;;;;5093087;28;19908;-68
2023/07/06 12:38:56;;;;;;;;;;;11.60;99.90;;;;;;5092949;28;19908;-67
2023/07/06 12:41:23;;;;;;;;;;;11.60;99.90;;;;;;5092632;28;19912;-68
2023/07/06 12:43:50;;;;;;;;;;;11.70;99.90;;;;;;5092678;28;20038;-66
2023/07/06 12:46:26;;;;;;;;;;;11.70;99.90;;;;;;5092616;28;19920;-62
2023/07/06 12:48:54;;;;;;;;;;;11.70;99.90;;;;;;5074658;28;20004;-64
2023/07/06 12:51:25;;;;;;;;;;;11.70;99.90;;;;;;5092743;28;19918;-64
2023/07/06 12:53:52;;;;;;;;;;;11.80;99.90;;;;;;5092486;28;19943;-64
2023/07/06 12:56:20;;;;;;;;;;;11.80;99.90;;;;;;5092756;28;19908;-63
2023/07/06 12:58:53;;;;;;;;;;;11.90;99.90;;;;;;5092586;28;19909;-63
2023/07/06 13:01:25;;;;;;;;;;;11.80;99.90;;;;;;5074440;28;19947;-68
2023/07/06 13:03:56;;;;;;;;;;;12.00;99.90;;;;;;5092621;28;20327;-63
2023/07/06 13:06:24;;;;;;;;;;;12.00;99.90;;;;;;5092599;28;19912;-68
2023/07/06 13:08:55;;;;;;;;;;;12.10;99.90;;;;;;5092214;28;19908;-68
2023/07/06 13:11:22;;;;;;;;;;;12.10;99.90;;;;;;5092468;28;19912;-69
2023/07/06 13:13:50;;;;;;;;;;;12.00;99.90;;;;;;5092427;28;19915;-67
2023/07/06 13:16:18;;;;;;;;;;;12.00;99.90;;;;;;5092688;28;19916;-64
2023/07/06 13:18:46;;;;;;;;;;;12.00;99.90;;;;;;5095525;28;19908;-63
2023/07/06 13:21:17;;;;;;;;;;;12.00;99.90;;;;;;5096600;28;19958;-62
2023/07/06 13:23:47;;;;;;;;;;;11.90;99.90;;;;;;5096264;28;19958;-63
2023/07/06 13:26:13;;;;;;;;;;;11.80;99.90;;;;;;5096044;28;19908;-63
2023/07/06 13:28:40;;;;;;;;;;;11.70;99.90;;;;;;5096159;28;20315;-64
2023/07/06 13:31:12;;;;;;;;;;;11.70;99.90;;;;;;5095978;28;19908;-67
2023/07/06 13:33:42;;;;;;;;;;;11.60;99.90;;;;;;5096172;28;19908;-62
2023/07/06 13:36:13;;;;;;;;;;;11.50;99.90;;;;;;5095999;28;20419;-62
2023/07/06 13:38:40;;;;;;;;;;;11.50;99.90;;;;;;5096243;28;19908;-63
2023/07/06 13:41:07;;;;;;;;;;;11.50;99.90;;;;;;5096054;28;19916;-62
2023/07/06 13:43:34;;;;;;;;;;;11.40;99.90;;;;;;5096274;28;19919;-62
2023/07/06 13:46:00;;;;;;;;;;;11.30;99.90;;;;;;5095630;28;19920;-62
2023/07/06 13:48:27;;;;;;;;;;;11.30;99.90;;;;;;5095892;28;19908;-63
2023/07/06 13:50:54;;;;;;;;;;;11.20;99.90;;;;;;5095605;28;19908;-63
2023/07/06 13:53:20;;;;;;;;;;;11.20;99.90;;;;;;5095818;28;19915;-63
2023/07/06 13:55:50;;;;;;;;;;;11.20;99.90;;;;;;5095875;28;20284;-63
2023/07/06 13:58:17;;;;;;;;;;;11.20;99.90;;;;;;5095842;28;19915;-63
2023/07/06 14:00:47;;;;;;;;;;;11.20;99.90;;;;;;5095541;28;19915;-64
2023/07/06 14:03:18;;;;;;;;;;;11.20;99.90;;;;;;5095746;28;19916;-64
2023/07/06 14:05:45;;;;;;;;;;;11.20;99.90;;;;;;5077311;28;19908;-63
2023/07/06 14:08:12;;;;;;;;;;;11.00;99.90;;;;;;5095283;28;19916;-64
2023/07/06 14:10:39;;;;;;;;;;;11.00;99.90;;;;;;5095410;28;19908;-64
2023/07/06 14:13:07;;;;;;;;;;;11.00;99.90;;;;;;5095076;28;19992;-63
2023/07/06 14:15:36;;;;;;;;;;;11.10;99.90;;;;;;5077184;28;20087;-63
2023/07/06 14:18:03;;;;;;;;;;;11.00;99.90;;;;;;5095096;28;20352;-65
2023/07/06 14:20:30;;;;;;;;;;;11.00;99.90;;;;;;5095199;28;20380;-63
2023/07/06 14:22:56;;;;;;;;;;;11.00;99.90;;;;;;5095238;28;19924;-63
2023/07/06 14:25:25;;;;;;;;;;;11.00;99.90;;;;;;5094645;28;19917;-64
2023/07/06 14:27:55;;;;;;;;;;;11.00;99.90;;;;;;5094872;28;19908;-63
2023/07/06 14:30:27;;;;;;;;;;;10.90;99.90;;;;;;5094658;28;20000;-65
2023/07/06 14:32:53;;;;;;;;;;;10.90;99.90;;;;;;5094958;28;19908;-63
2023/07/06 14:35:20;;;;;;;;;;;11.00;99.90;;;;;;5095109;28;20368;-65